Time;durP1;ratioP1;P1;durP2;ratioP2;P2;SDS_P1;SDS_P2;PMS_P1;PMS_P2;Temp;Humidity;BMP_temperature;BMP_pressure;BME280_temperature;BME280_humidity;BME280_pressure;Samples;Min_cycle;Max_cycle;Signal;HPM_P1;HPM_P2
2023/03/24 00:01:02;;;;;;;7.78;6.80;;;;;;;;;;6302322;22;20011;-76
2023/03/24 00:03:29;;;;;;;9.73;8.48;;;;;;;;;;6275517;22;20011;-76
2023/03/24 00:06:00;;;;;;;11.50;8.65;;;;;;;;;;6302205;22;20019;-77
2023/03/24 00:08:29;;;;;;;8.73;7.97;;;;;;;;;;6302400;22;20023;-76
2023/03/24 00:11:00;;;;;;;8.18;7.50;;;;;;;;;;6300336;22;20488;-76
2023/03/24 00:13:26;;;;;;;;;;;;;;;;;;6301296;22;20470;-76
2023/03/24 00:15:52;;;;;;;9.90;8.90;;;;;;;;;;6302379;22;19907;-77
2023/03/24 00:18:21;;;;;;;9.15;7.18;;;;;;;;;;6302750;22;20019;-76
2023/03/24 00:20:47;;;;;;;9.27;8.48;;;;;;;;;;6301209;22;20086;-76
2023/03/24 00:23:14;;;;;;;8.32;7.53;;;;;;;;;;6303056;22;20033;-76
2023/03/24 00:25:40;;;;;;;9.27;8.38;;;;;;;;;;6301752;22;20340;-76
2023/03/24 00:28:06;;;;;;;10.10;9.30;;;;;;;;;;6276323;22;20049;-76
2023/03/24 00:30:33;;;;;;;9.32;8.50;;;;;;;;;;6302011;22;20341;-77
2023/03/24 00:33:00;;;;;;;10.13;9.32;;;;;;;;;;6301995;22;20357;-78
2023/03/24 00:35:27;;;;;;;9.57;8.77;;;;;;;;;;6301857;22;20037;-75
2023/03/24 00:37:53;;;;;;;9.88;9.07;;;;;;;;;;6306957;22;20022;-75
2023/03/24 00:40:19;;;;;;;9.90;9.10;;;;;;;;;;6314000;22;20098;-77
2023/03/24 00:42:46;;;;;;;10.02;9.02;;;;;;;;;;6316226;22;20038;-77
2023/03/24 00:45:14;;;;;;;8.07;7.47;;;;;;;;;;6313196;22;20033;-77
2023/03/24 00:47:40;;;;;;;10.10;9.25;;;;;;;;;;6304222;22;20041;-77
2023/03/24 00:50:07;;;;;;;9.52;8.13;;;;;;;;;;6304341;22;20017;-76
2023/03/24 00:52:34;;;;;;;10.13;9.32;;;;;;;;;;6301913;22;20035;-77
2023/03/24 00:55:00;;;;;;;10.32;9.43;;;;;;;;;;6302176;22;20092;-75
2023/03/24 00:57:28;;;;;;;10.13;8.05;;;;;;;;;;6300797;22;20015;-74
2023/03/24 00:59:55;;;;;;;9.93;9.10;;;;;;;;;;6301830;22;20011;-77
2023/03/24 01:02:23;;;;;;;10.80;8.45;;;;;;;;;;6304378;22;20033;-77
2023/03/24 01:04:53;;;;;;;10.90;9.95;;;;;;;;;;6300956;22;20011;-77
2023/03/24 01:07:20;;;;;;;10.35;9.35;;;;;;;;;;6276245;22;20045;-76
2023/03/24 01:10:20;;;;;;;9.13;8.23;;;;;;;;;;6301755;22;20018;-78
2023/03/24 01:12:39;;;;;;;8.95;8.05;;;;;;;;;;6299768;22;20045;-75
2023/03/24 01:15:07;;;;;;;9.27;8.48;;;;;;;;;;6300998;22;20049;-77
2023/03/24 01:17:34;;;;;;;8.68;7.95;;;;;;;;;;6274791;22;20399;-76
2023/03/24 01:20:05;;;;;;;8.65;7.95;;;;;;;;;;6301993;22;20103;-76
2023/03/24 01:22:36;;;;;;;9.85;8.93;;;;;;;;;;6303064;22;20094;-77
2023/03/24 01:25:03;;;;;;;9.80;8.63;;;;;;;;;;6302125;22;20007;-76
2023/03/24 01:27:29;;;;;;;9.45;8.65;;;;;;;;;;6300625;22;20046;-76
2023/03/24 01:29:59;;;;;;;8.85;8.02;;;;;;;;;;6302030;22;20015;-76
2023/03/24 01:32:25;;;;;;;9.32;8.43;;;;;;;;;;6302574;22;20011;-77
2023/03/24 01:34:51;;;;;;;9.23;8.43;;;;;;;;;;6301293;22;20078;-75
2023/03/24 01:37:17;;;;;;;10.68;9.68;;;;;;;;;;6301142;22;20018;-76
2023/03/24 01:39:43;;;;;;;10.45;9.38;;;;;;;;;;6302018;22;20011;-78
2023/03/24 01:42:16;;;;;;;10.85;9.90;;;;;;;;;;6301060;22;20011;-76
2023/03/24 01:44:44;;;;;;;8.25;7.50;;;;;;;;;;6300517;22;20086;-78
2023/03/24 01:47:10;;;;;;;13.20;9.00;;;;;;;;;;6301027;22;20396;-77
2023/03/24 01:49:51;;;;;;;14.70;8.32;;;;;;;;;;6301676;22;20007;-75
2023/03/24 01:52:20;;;;;;;9.20;8.38;;;;;;;;;;6302855;22;20114;-76
2023/03/24 01:54:47;;;;;;;9.93;8.80;;;;;;;;;;6300489;22;20064;-77
2023/03/24 01:57:17;;;;;;;9.90;9.10;;;;;;;;;;6275312;22;20367;-78
2023/03/24 01:59:45;;;;;;;10.30;9.25;;;;;;;;;;6300708;22;20068;-76
2023/03/24 02:02:24;;;;;;;8.55;7.75;;;;;;;;;;6275453;22;20110;-78
2023/03/24 02:04:58;;;;;;;6.60;6.00;;;;;;;;;;6275150;22;20015;-77
2023/03/24 02:07:31;;;;;;;11.82;10.68;;;;;;;;;;6275166;22;20023;-77
2023/03/24 02:09:57;;;;;;;8.10;7.38;;;;;;;;;;6300771;22;20031;-76
2023/03/24 02:12:23;;;;;;;9.52;8.57;;;;;;;;;;6301342;22;20015;-78
2023/03/24 02:14:51;;;;;;;10.07;9.07;;;;;;;;;;6301003;22;20269;-77
2023/03/24 02:17:53;;;;;;;8.82;8.02;;;;;;;;;;6279359;22;20076;-75
2023/03/24 02:20:20;;;;;;;9.77;8.77;;;;;;;;;;6276128;22;20408;-78
2023/03/24 02:23:00;;;;;;;10.52;9.57;;;;;;;;;;6299796;22;20657;-79
2023/03/24 02:25:26;;;;;;;8.88;8.00;;;;;;;;;;6275263;22;20080;-77
2023/03/24 02:28:13;;;;;;;10.93;9.82;;;;;;;;;;6299766;22;20043;-77
2023/03/24 02:30:49;;;;;;;11.48;10.38;;;;;;;;;;6274851;22;20415;-78
2023/03/24 02:33:34;;;;;;;10.88;9.27;;;;;;;;;;6275514;22;20590;-78
2023/03/24 02:36:03;;;;;;;10.77;9.65;;;;;;;;;;6249033;22;20007;-77
2023/03/24 02:38:53;;;;;;;10.52;9.45;;;;;;;;;;6301161;22;20017;-78
2023/03/24 02:41:22;;;;;;;10.98;9.32;;;;;;;;;;6275196;22;20559;-78
2023/03/24 02:43:54;;;;;;;10.90;9.85;;;;;;;;;;6301533;22;20011;-78
2023/03/24 02:46:24;;;;;;;11.15;10.07;;;;;;;;;;6274440;22;20359;-75
2023/03/24 02:49:03;;;;;;;8.50;7.57;;;;;;;;;;6300332;22;20038;-77
2023/03/24 02:51:31;;;;;;;11.60;10.60;;;;;;;;;;6300116;22;20033;-75
2023/03/24 02:54:06;;;;;;;13.05;9.15;;;;;;;;;;6274089;22;20061;-76
2023/03/24 02:56:37;;;;;;;15.68;9.30;;;;;;;;;;6299526;22;20011;-77
2023/03/24 02:59:17;;;;;;;11.73;10.60;;;;;;;;;;6300115;22;20017;-76
2023/03/24 03:01:44;;;;;;;12.45;9.23;;;;;;;;;;6274169;22;20061;-77
2023/03/24 03:04:25;;;;;;;12.10;10.52;;;;;;;;;;6277949;22;20094;-78
2023/03/24 03:06:52;;;;;;;13.80;11.25;;;;;;;;;;6274842;22;20041;-77
2023/03/24 03:09:19;;;;;;;15.63;11.13;;;;;;;;;;6305528;22;20455;-76
2023/03/24 03:11:46;;;;;;;9.32;8.38;;;;;;;;;;6301190;22;20359;-76
2023/03/24 03:14:24;;;;;;;13.93;10.65;;;;;;;;;;6276311;22;20011;-75
2023/03/24 03:16:58;;;;;;;11.48;10.38;;;;;;;;;;6302781;22;20027;-76
2023/03/24 03:19:31;;;;;;;11.05;10.05;;;;;;;;;;6277411;22;20007;-78
2023/03/24 03:21:57;;;;;;;13.02;10.60;;;;;;;;;;6303980;22;20018;-78
2023/03/24 03:24:26;;;;;;;11.85;10.65;;;;;;;;;;6303727;22;20478;-78
2023/03/24 03:26:54;;;;;;;14.50;11.50;;;;;;;;;;6302685;22;20019;-78
2023/03/24 03:29:22;;;;;;;11.50;10.40;;;;;;;;;;6302596;22;20082;-77
2023/03/24 03:31:51;;;;;;;11.45;10.38;;;;;;;;;;6302228;22;20007;-77
2023/03/24 03:34:30;;;;;;;10.80;9.00;;;;;;;;;;6304696;22;20030;-76
2023/03/24 03:36:59;;;;;;;12.05;10.85;;;;;;;;;;6277353;22;20011;-76
2023/03/24 03:39:36;;;;;;;13.00;10.13;;;;;;;;;;6304736;22;20011;-77
2023/03/24 03:42:06;;;;;;;11.55;10.48;;;;;;;;;;6277552;22;20007;-77
2023/03/24 03:44:33;;;;;;;11.15;10.13;;;;;;;;;;6277483;22;20447;-79
2023/03/24 03:46:59;;;;;;;12.80;11.50;;;;;;;;;;6251378;22;20026;-79
2023/03/24 03:49:36;;;;;;;10.02;9.05;;;;;;;;;;6303396;22;20011;-80
2023/03/24 03:52:02;;;;;;;14.23;12.93;;;;;;;;;;6302984;22;20091;-77
2023/03/24 03:54:28;;;;;;;10.73;9.55;;;;;;;;;;6277689;22;20007;-78
2023/03/24 03:56:55;;;;;;;12.80;11.60;;;;;;;;;;6277343;22;20022;-78
2023/03/24 03:59:32;;;;;;;13.98;12.57;;;;;;;;;;6303274;22;20007;-78
2023/03/24 04:02:18;;;;;;;12.52;11.15;;;;;;;;;;6302715;22;20022;-76
2023/03/24 04:04:44;;;;;;;14.02;11.35;;;;;;;;;;6302331;22;20011;-76
2023/03/24 04:07:27;;;;;;;;;;;;;;;;;;6301046;22;20023;-76
2023/03/24 04:10:12;;;;;;;13.70;12.25;;;;;;;;;;6302596;22;19914;-76
2023/03/24 04:12:39;;;;;;;12.20;11.10;;;;;;;;;;6301515;22;20042;-74
2023/03/24 04:15:57;;;;;;;16.58;12.05;;;;;;;;;;6278525;22;20014;-73
2023/03/24 04:18:43;;;;;;;9.77;8.95;;;;;;;;;;6297415;22;20026;-76
2023/03/24 04:21:13;;;;;;;12.93;11.63;;;;;;;;;;6301506;22;20009;-73
2023/03/24 04:23:39;;;;;;;14.25;12.70;;;;;;;;;;6300756;22;20011;-75
2023/03/24 04:26:13;;;;;;;10.13;9.20;;;;;;;;;;6300072;22;20007;-75
2023/03/24 04:28:42;;;;;;;13.80;12.50;;;;;;;;;;6300368;22;20023;-74
2023/03/24 04:31:08;;;;;;;15.60;13.93;;;;;;;;;;6271906;22;20020;-75
2023/03/24 04:33:38;;;;;;;16.08;13.23;;;;;;;;;;6296459;22;20336;-74
2023/03/24 04:36:15;;;;;;;13.18;11.85;;;;;;;;;;6273039;22;20011;-74
2023/03/24 04:38:55;;;;;;;15.30;13.73;;;;;;;;;;6274885;22;20238;-75
2023/03/24 04:41:46;;;;;;;13.40;12.13;;;;;;;;;;6300524;22;20018;-75
2023/03/24 04:44:20;;;;;;;13.40;12.10;;;;;;;;;;6276320;22;20018;-78
2023/03/24 04:47:07;;;;;;;12.25;10.75;;;;;;;;;;6238187;22;20163;-75
2023/03/24 04:49:36;;;;;;;11.50;10.48;;;;;;;;;;6273850;22;20452;-74
2023/03/24 04:52:02;;;;;;;16.27;13.95;;;;;;;;;;6273982;22;20346;-75
2023/03/24 04:54:32;;;;;;;14.18;12.68;;;;;;;;;;6275512;22;20013;-73
2023/03/24 04:57:04;;;;;;;15.50;13.20;;;;;;;;;;6300205;22;20093;-72
2023/03/24 04:59:39;;;;;;;14.90;13.35;;;;;;;;;;6300514;22;20011;-73
2023/03/24 05:02:06;;;;;;;13.23;11.85;;;;;;;;;;6300260;22;20015;-73
2023/03/24 05:04:52;;;;;;;15.52;13.95;;;;;;;;;;6280542;22;20034;-74
2023/03/24 05:07:42;;;;;;;22.58;12.63;;;;;;;;;;6306955;22;20025;-75
2023/03/24 05:10:12;;;;;;;19.00;15.00;;;;;;;;;;6312481;22;20026;-75
2023/03/24 05:12:43;;;;;;;20.35;17.05;;;;;;;;;;6286641;22;20042;-72
2023/03/24 05:15:35;;;;;;;15.40;13.80;;;;;;;;;;6305170;22;20065;-74
2023/03/24 05:18:17;;;;;;;15.70;12.68;;;;;;;;;;6301572;22;20046;-74
2023/03/24 05:20:43;;;;;;;19.80;15.57;;;;;;;;;;6302605;22;20099;-72
2023/03/24 05:23:16;;;;;;;17.63;14.80;;;;;;;;;;6300742;22;20096;-73
2023/03/24 05:25:44;;;;;;;17.65;15.63;;;;;;;;;;6274902;22;20022;-74
2023/03/24 05:28:11;;;;;;;19.63;15.80;;;;;;;;;;6301658;22;20026;-74
2023/03/24 05:30:37;;;;;;;22.30;18.55;;;;;;;;;;6274355;22;20009;-75
2023/03/24 05:33:16;;;;;;;19.05;14.40;;;;;;;;;;6274412;22;20596;-74
2023/03/24 05:35:42;;;;;;;30.92;22.83;;;;;;;;;;6299938;22;20462;-75
2023/03/24 05:38:09;;;;;;;23.20;18.23;;;;;;;;;;6299943;22;20015;-74
2023/03/24 05:40:35;;;;;;;28.25;21.02;;;;;;;;;;6300860;22;20025;-75
2023/03/24 05:43:20;;;;;;;20.30;17.30;;;;;;;;;;6300507;22;20098;-74
2023/03/24 05:45:58;;;;;;;27.48;21.38;;;;;;;;;;6300026;22;20061;-74
2023/03/24 05:48:32;;;;;;;21.48;15.45;;;;;;;;;;6299968;22;20498;-73
2023/03/24 05:51:18;;;;;;;22.92;17.67;;;;;;;;;;6300309;22;20056;-72
2023/03/24 05:53:48;;;;;;;26.55;19.85;;;;;;;;;;6300056;22;20011;-72
2023/03/24 05:56:17;;;;;;;29.20;20.55;;;;;;;;;;6274162;22;20007;-73
2023/03/24 05:59:10;;;;;;;32.58;20.23;;;;;;;;;;6292230;22;20011;-73
2023/03/24 06:01:48;;;;;;;33.60;21.17;;;;;;;;;;6301434;22;20007;-74
2023/03/24 06:04:29;;;;;;;30.08;20.20;;;;;;;;;;6300050;22;20042;-74
2023/03/24 06:07:00;;;;;;;25.48;19.83;;;;;;;;;;6273525;22;20027;-73
2023/03/24 06:09:34;;;;;;;35.70;24.33;;;;;;;;;;6250069;22;20019;-73
2023/03/24 06:12:02;;;;;;;34.63;23.23;;;;;;;;;;6273776;22;20014;-73
2023/03/24 06:14:32;;;;;;;34.88;23.92;;;;;;;;;;6300219;22;20049;-73
2023/03/24 06:17:13;;;;;;;30.00;21.23;;;;;;;;;;6301082;22;20098;-73
2023/03/24 06:19:48;;;;;;;31.60;21.92;;;;;;;;;;6300038;22;20613;-74
2023/03/24 06:22:37;;;;;;;36.72;25.05;;;;;;;;;;6283619;22;20524;-74
2023/03/24 06:25:08;;;;;;;32.25;24.13;;;;;;;;;;6299925;22;20581;-74
2023/03/24 06:27:35;;;;;;;29.73;19.80;;;;;;;;;;6299468;22;20031;-73
2023/03/24 06:30:02;;;;;;;29.00;23.63;;;;;;;;;;6299169;22;20014;-72
2023/03/24 06:32:29;;;;;;;29.13;22.13;;;;;;;;;;6273678;22;20017;-73
2023/03/24 06:34:56;;;;;;;37.72;27.48;;;;;;;;;;6273773;22;20007;-73
2023/03/24 06:37:39;;;;;;;31.92;22.40;;;;;;;;;;6277665;22;20068;-72
2023/03/24 06:40:11;;;;;;;33.63;24.52;;;;;;;;;;6299583;22;20058;-73
2023/03/24 06:42:41;;;;;;;23.75;17.73;;;;;;;;;;6299798;22;20015;-72
2023/03/24 06:45:08;;;;;;;29.90;21.77;;;;;;;;;;6301560;22;20011;-74
2023/03/24 06:47:34;;;;;;;36.60;23.25;;;;;;;;;;6301764;22;20023;-73
2023/03/24 06:50:01;;;;;;;34.08;22.95;;;;;;;;;;6302925;22;20011;-73
2023/03/24 06:52:28;;;;;;;19.50;16.48;;;;;;;;;;6276492;22;20011;-73
2023/03/24 06:54:56;;;;;;;33.72;22.80;;;;;;;;;;6301705;22;20459;-73
2023/03/24 06:57:23;;;;;;;34.65;25.23;;;;;;;;;;6276496;22;20015;-75
2023/03/24 07:00:25;;;;;;;37.40;26.20;;;;;;;;;;6178256;23;20093;-73
2023/03/24 07:03:04;;;;;;;31.97;23.80;;;;;;;;;;6284708;22;20022;-71
2023/03/24 07:05:31;;;;;;;25.88;19.15;;;;;;;;;;6303205;22;20425;-71
2023/03/24 07:07:58;;;;;;;27.50;20.35;;;;;;;;;;6301294;22;20019;-73
2023/03/24 07:10:46;;;;;;;35.60;24.40;;;;;;;;;;6303337;22;20030;-72
2023/03/24 07:13:12;;;;;;;28.85;20.40;;;;;;;;;;6301512;22;20018;-73
2023/03/24 07:15:40;;;;;;;23.52;18.77;;;;;;;;;;6276219;22;20107;-76
2023/03/24 07:18:08;;;;;;;30.60;21.23;;;;;;;;;;6301106;22;20079;-74
2023/03/24 07:20:41;;;;;;;29.98;20.55;;;;;;;;;;6301909;22;20086;-74
2023/03/24 07:23:13;;;;;;;34.70;24.42;;;;;;;;;;6302383;22;20018;-73
2023/03/24 07:25:57;;;;;;;28.25;21.40;;;;;;;;;;6302170;22;20546;-74
2023/03/24 07:28:49;;;;;;;21.58;17.38;;;;;;;;;;6303463;22;20045;-78
2023/03/24 07:31:24;;;;;;;14.15;12.50;;;;;;;;;;6276474;22;20716;-76
2023/03/24 07:33:58;;;;;;;28.00;19.08;;;;;;;;;;6301648;22;20042;-77
2023/03/24 07:36:24;;;;;;;33.67;21.42;;;;;;;;;;6300720;22;20011;-77
2023/03/24 07:38:51;;;;;;;31.73;24.15;;;;;;;;;;6303141;22;20351;-77
2023/03/24 07:41:25;;;;;;;22.08;17.20;;;;;;;;;;6277157;22;20015;-76
2023/03/24 07:43:56;;;;;;;18.85;15.05;;;;;;;;;;6301020;22;20011;-76
2023/03/24 07:49:46;;;;;;;18.45;14.98;;;;;;;;;;6303256;22;20042;-73
2023/03/24 07:52:13;;;;;;;19.45;16.50;;;;;;;;;;6300681;22;20011;-75
2023/03/24 07:54:45;;;;;;;22.75;19.13;;;;;;;;;;6301230;22;20018;-75
2023/03/24 07:57:28;;;;;;;17.02;14.48;;;;;;;;;;6301596;22;20011;-73
2023/03/24 07:59:55;;;;;;;19.10;14.65;;;;;;;;;;6301082;22;20019;-76
2023/03/24 08:03:08;;;;;;;11.70;10.55;;;;;;;;;;6279975;22;20034;-74
2023/03/24 08:06:24;;;;;;;18.42;15.68;;;;;;;;;;6302417;22;20008;-73
2023/03/24 08:09:15;;;;;;;19.25;14.30;;;;;;;;;;6302507;22;20169;-78
2023/03/24 08:11:40;;;;;;;14.95;13.38;;;;;;;;;;6300615;22;20015;-73
2023/03/24 08:14:07;;;;;;;15.05;13.38;;;;;;;;;;6300747;22;20061;-76
2023/03/24 08:16:33;;;;;;;17.98;14.20;;;;;;;;;;6301125;22;20019;-76
2023/03/24 08:18:59;;;;;;;15.38;12.85;;;;;;;;;;6302209;22;20046;-74
2023/03/24 08:21:25;;;;;;;16.50;14.25;;;;;;;;;;6302434;22;20019;-77
2023/03/24 08:23:51;;;;;;;22.30;16.35;;;;;;;;;;6302547;22;20018;-75
2023/03/24 08:26:17;;;;;;;24.17;17.13;;;;;;;;;;6302603;22;20042;-77
2023/03/24 08:28:43;;;;;;;19.48;13.30;;;;;;;;;;6302559;22;20023;-78
2023/03/24 08:31:10;;;;;;;17.15;14.23;;;;;;;;;;6303204;22;20029;-76
2023/03/24 08:33:36;;;;;;;20.55;16.40;;;;;;;;;;6302554;22;20011;-76
2023/03/24 08:36:02;;;;;;;15.23;13.48;;;;;;;;;;6300711;22;20094;-76
2023/03/24 08:38:31;;;;;;;20.10;15.85;;;;;;;;;;6302776;22;20007;-73
2023/03/24 08:41:00;;;;;;;19.27;16.50;;;;;;;;;;6302161;22;20090;-74
2023/03/24 08:43:27;;;;;;;21.83;16.40;;;;;;;;;;6300753;22;20396;-74
2023/03/24 08:45:53;;;;;;;22.25;16.88;;;;;;;;;;6302184;22;20011;-75
2023/03/24 08:48:20;;;;;;;18.88;16.17;;;;;;;;;;6300008;22;20022;-73
2023/03/24 08:50:46;;;;;;;14.98;12.85;;;;;;;;;;6302204;22;20456;-77
2023/03/24 08:53:12;;;;;;;11.05;10.00;;;;;;;;;;6301073;22;20017;-76
2023/03/24 08:55:42;;;;;;;17.52;13.68;;;;;;;;;;6302202;22;20014;-75
2023/03/24 08:58:14;;;;;;;11.23;9.15;;;;;;;;;;6301695;22;20110;-79
2023/03/24 09:00:40;;;;;;;8.32;7.45;;;;;;;;;;6302588;22;20007;-77
2023/03/24 09:03:06;;;;;;;13.50;11.20;;;;;;;;;;6249604;22;20041;-76
2023/03/24 09:05:32;;;;;;;11.35;10.32;;;;;;;;;;6302122;22;20014;-78
2023/03/24 09:08:00;;;;;;;10.93;9.93;;;;;;;;;;6300024;22;20019;-77
2023/03/24 09:10:26;;;;;;;9.55;8.65;;;;;;;;;;6301669;22;20378;-80
2023/03/24 09:12:53;;;;;;;9.00;8.15;;;;;;;;;;6302844;22;20103;-80
2023/03/24 09:15:19;;;;;;;10.80;9.88;;;;;;;;;;6302551;22;20015;-76
2023/03/24 09:17:45;;;;;;;8.00;7.30;;;;;;;;;;6301628;22;20019;-79
2023/03/24 09:20:12;;;;;;;9.10;8.23;;;;;;;;;;6301325;22;20011;-78
2023/03/24 09:22:39;;;;;;;6.53;6.03;;;;;;;;;;6301716;22;20014;-79
2023/03/24 09:25:05;;;;;;;7.30;5.07;;;;;;;;;;6301790;22;20019;-78
2023/03/24 09:27:31;;;;;;;7.03;6.35;;;;;;;;;;6301899;22;20038;-78
2023/03/24 09:29:57;;;;;;;6.97;6.38;;;;;;;;;;6301962;22;20014;-79
2023/03/24 09:32:23;;;;;;;9.32;8.63;;;;;;;;;;6303722;22;20148;-79
2023/03/24 09:34:50;;;;;;;8.32;7.63;;;;;;;;;;6300560;22;20007;-79
2023/03/24 09:37:16;;;;;;;4.07;3.78;;;;;;;;;;6300925;22;20014;-77
2023/03/24 09:39:42;;;;;;;9.20;8.50;;;;;;;;;;6302893;22;20094;-78
2023/03/24 09:42:09;;;;;;;8.45;7.70;;;;;;;;;;6302784;22;20015;-80
2023/03/24 09:44:36;;;;;;;8.05;7.35;;;;;;;;;;6303567;22;20026;-79
2023/03/24 09:47:05;;;;;;;5.03;4.63;;;;;;;;;;6300752;22;20054;-77
2023/03/24 09:49:31;;;;;;;7.93;7.32;;;;;;;;;;6311307;22;20165;-79
2023/03/24 09:52:04;;;;;;;7.88;7.28;;;;;;;;;;6321432;22;20031;-80
2023/03/24 09:54:49;;;;;;;5.75;5.35;;;;;;;;;;6320345;22;20042;-78
2023/03/24 09:57:16;;;;;;;4.97;4.68;;;;;;;;;;6302134;22;20015;-77
2023/03/24 09:59:43;;;;;;;7.43;6.82;;;;;;;;;;6300184;22;20015;-77
2023/03/24 10:02:13;;;;;;;4.65;4.35;;;;;;;;;;6304391;22;20149;-77
2023/03/24 10:04:39;;;;;;;3.60;3.40;;;;;;;;;;6302133;22;20011;-75
2023/03/24 10:07:05;;;;;;;6.40;5.88;;;;;;;;;;6300867;22;20100;-78
2023/03/24 10:09:33;;;;;;;6.72;5.55;;;;;;;;;;6302418;22;20015;-77
2023/03/24 10:12:18;;;;;;;7.18;5.88;;;;;;;;;;6300459;22;20012;-76
2023/03/24 10:15:02;;;;;;;4.72;4.32;;;;;;;;;;6301610;22;20015;-78
2023/03/24 10:17:41;;;;;;;4.13;3.83;;;;;;;;;;6300943;22;20118;-78
2023/03/24 10:20:07;;;;;;;5.20;4.90;;;;;;;;;;6301968;22;20016;-77
2023/03/24 10:22:36;;;;;;;4.53;4.22;;;;;;;;;;6303545;22;20015;-78
2023/03/24 10:25:03;;;;;;;6.13;5.45;;;;;;;;;;6303114;22;20409;-76
2023/03/24 10:27:31;;;;;;;5.00;4.60;;;;;;;;;;6303519;22;20098;-76
2023/03/24 10:30:07;;;;;;;5.35;4.95;;;;;;;;;;6276577;22;20014;-74
2023/03/24 10:32:33;;;;;;;3.78;3.58;;;;;;;;;;6302201;22;20085;-75
2023/03/24 10:35:06;;;;;;;4.78;4.38;;;;;;;;;;6301437;22;20018;-74
2023/03/24 10:37:32;;;;;;;4.55;4.25;;;;;;;;;;6303466;22;20022;-75
2023/03/24 10:39:59;;;;;;;3.90;3.60;;;;;;;;;;6303739;22;20018;-75
2023/03/24 10:42:25;;;;;;;3.15;2.95;;;;;;;;;;6302948;22;20042;-75
2023/03/24 10:44:51;;;;;;;4.60;4.30;;;;;;;;;;6302115;22;20064;-74
2023/03/24 10:47:18;;;;;;;5.32;4.93;;;;;;;;;;6302971;22;20421;-76
2023/03/24 10:49:54;;;;;;;4.70;4.28;;;;;;;;;;6300931;22;20016;-76
2023/03/24 10:52:23;;;;;;;5.20;4.70;;;;;;;;;;6302907;22;20014;-75
2023/03/24 10:54:52;;;;;;;2.88;2.67;;;;;;;;;;6302697;22;20094;-77
2023/03/24 10:57:18;;;;;;;6.65;5.20;;;;;;;;;;6304027;22;20012;-79
2023/03/24 10:59:50;;;;;;;4.82;3.45;;;;;;;;;;6302861;22;20700;-78
2023/03/24 11:02:19;;;;;;;5.65;5.25;;;;;;;;;;6276358;22;20014;-75
2023/03/24 11:04:58;;;;;;;4.25;3.95;;;;;;;;;;6303783;22;20015;-76
2023/03/24 11:07:45;;;;;;;4.93;4.60;;;;;;;;;;6301693;22;20026;-77
2023/03/24 11:10:14;;;;;;;6.43;5.93;;;;;;;;;;6303105;22;20007;-77
2023/03/24 11:12:40;;;;;;;3.90;3.70;;;;;;;;;;6303700;22;20018;-76
2023/03/24 11:15:16;;;;;;;6.18;5.50;;;;;;;;;;6276117;22;20072;-78
2023/03/24 11:17:43;;;;;;;5.22;4.82;;;;;;;;;;6303336;22;20030;-78
2023/03/24 11:20:20;;;;;;;4.95;4.60;;;;;;;;;;6303364;22;20018;-77
2023/03/24 11:22:59;;;;;;;8.13;5.60;;;;;;;;;;6306245;22;20586;-75
2023/03/24 11:25:26;;;;;;;6.18;5.57;;;;;;;;;;6275368;22;20014;-76
2023/03/24 11:27:54;;;;;;;5.93;5.43;;;;;;;;;;6306113;22;20023;-76
2023/03/24 11:30:20;;;;;;;5.28;4.90;;;;;;;;;;6307318;22;20132;-77
2023/03/24 11:32:47;;;;;;;6.32;4.65;;;;;;;;;;6307146;22;20065;-76
2023/03/24 11:35:16;;;;;;;5.63;5.22;;;;;;;;;;6305625;22;20086;-76
2023/03/24 11:37:42;;;;;;;6.78;5.22;;;;;;;;;;6276821;22;20090;-76
2023/03/24 11:40:12;;;;;;;4.18;3.88;;;;;;;;;;6306116;22;20038;-77
2023/03/24 11:42:49;;;;;;;4.33;3.93;;;;;;;;;;6307649;22;20011;-78
2023/03/24 11:45:20;;;;;;;6.43;5.82;;;;;;;;;;6305831;22;20003;-78
2023/03/24 11:47:45;;;;;;;5.50;5.10;;;;;;;;;;6301106;22;20027;-77
2023/03/24 11:50:13;;;;;;;6.57;5.97;;;;;;;;;;6303754;22;20136;-77
2023/03/24 11:52:51;;;;;;;4.85;4.55;;;;;;;;;;6301383;22;20468;-78
2023/03/24 11:55:20;;;;;;;4.30;4.00;;;;;;;;;;6303612;22;20051;-78
2023/03/24 11:57:56;;;;;;;6.20;5.47;;;;;;;;;;6276416;22;20096;-77
2023/03/24 12:00:28;;;;;;;5.93;5.43;;;;;;;;;;6302227;22;20424;-78
2023/03/24 12:02:57;;;;;;;6.38;5.78;;;;;;;;;;6302619;22;20086;-78
2023/03/24 12:05:36;;;;;;;5.78;5.25;;;;;;;;;;6303570;22;20374;-77
2023/03/24 12:08:09;;;;;;;5.47;5.07;;;;;;;;;;6302189;22;20029;-77
2023/03/24 12:10:37;;;;;;;5.28;4.78;;;;;;;;;;6276811;22;20098;-78
2023/03/24 12:13:06;;;;;;;6.00;5.20;;;;;;;;;;6302154;22;20011;-76
2023/03/24 12:15:41;;;;;;;5.70;4.20;;;;;;;;;;6302722;22;20029;-77
2023/03/24 12:18:16;;;;;;;4.15;3.95;;;;;;;;;;6303126;22;20494;-77
2023/03/24 12:21:01;;;;;;;4.03;3.72;;;;;;;;;;6301776;22;20471;-76
2023/03/24 12:23:27;;;;;;;5.22;4.82;;;;;;;;;;6299713;22;20011;-77
2023/03/24 12:26:13;;;;;;;4.88;4.38;;;;;;;;;;6300400;22;20018;-77
2023/03/24 12:28:45;;;;;;;5.50;5.10;;;;;;;;;;6273211;22;20018;-77
2023/03/24 12:31:30;;;;;;;4.85;4.40;;;;;;;;;;6303348;22;20011;-76
2023/03/24 12:34:15;;;;;;;5.20;4.72;;;;;;;;;;6306776;22;20011;-76
2023/03/24 12:36:44;;;;;;;4.75;4.35;;;;;;;;;;6308090;22;20038;-76
2023/03/24 12:39:22;;;;;;;5.53;5.03;;;;;;;;;;6305235;22;20132;-78
2023/03/24 12:42:09;;;;;;;5.70;5.30;;;;;;;;;;6303453;22;20011;-77
2023/03/24 12:44:54;;;;;;;4.88;4.57;;;;;;;;;;6303868;22;20015;-77
2023/03/24 12:47:29;;;;;;;7.05;5.55;;;;;;;;;;6303195;22;20030;-76
2023/03/24 12:49:55;;;;;;;5.50;5.00;;;;;;;;;;6301860;22;20083;-76
2023/03/24 12:52:39;;;;;;;3.95;3.65;;;;;;;;;;6304688;22;20400;-76
2023/03/24 12:55:13;;;;;;;3.08;2.88;;;;;;;;;;6303867;22;20022;-77
2023/03/24 12:58:08;;;;;;;5.30;4.90;;;;;;;;;;6303314;22;20020;-77
2023/03/24 13:00:35;;;;;;;4.43;4.05;;;;;;;;;;6193181;22;20088;-76
2023/03/24 13:03:21;;;;;;;4.32;4.03;;;;;;;;;;6301914;22;20015;-78
2023/03/24 13:05:48;;;;;;;3.92;3.63;;;;;;;;;;6302435;22;20015;-77
2023/03/24 13:08:28;;;;;;;3.40;3.05;;;;;;;;;;6301254;22;20095;-77
2023/03/24 13:10:58;;;;;;;5.60;4.00;;;;;;;;;;6303203;22;20325;-76
2023/03/24 13:13:29;;;;;;;3.83;3.13;;;;;;;;;;6301170;22;20015;-76
2023/03/24 13:15:56;;;;;;;4.40;4.10;;;;;;;;;;6301851;22;20015;-76
2023/03/24 13:18:22;;;;;;;3.85;3.63;;;;;;;;;;6301424;22;20015;-76
2023/03/24 13:21:00;;;;;;;4.03;3.55;;;;;;;;;;6303073;22;20011;-77
2023/03/24 13:23:38;;;;;;;4.55;3.60;;;;;;;;;;6302518;22;20053;-76
2023/03/24 13:26:04;;;;;;;3.60;3.40;;;;;;;;;;6302734;22;20671;-77
2023/03/24 13:28:44;;;;;;;6.60;4.43;;;;;;;;;;6302466;22;20110;-77
2023/03/24 13:31:10;;;;;;;3.00;2.83;;;;;;;;;;6301360;22;20193;-76
2023/03/24 13:33:36;;;;;;;4.60;4.30;;;;;;;;;;6275393;22;20011;-76
2023/03/24 13:36:25;;;;;;;4.40;4.10;;;;;;;;;;6302560;22;20125;-76
2023/03/24 13:38:54;;;;;;;3.63;3.42;;;;;;;;;;6245018;22;20011;-77
2023/03/24 13:41:23;;;;;;;3.47;3.28;;;;;;;;;;6275355;22;20012;-75
2023/03/24 13:43:59;;;;;;;2.92;2.72;;;;;;;;;;6303006;22;20007;-77
2023/03/24 13:46:25;;;;;;;4.88;3.80;;;;;;;;;;6301995;22;20019;-76
2023/03/24 13:48:52;;;;;;;4.25;3.17;;;;;;;;;;6303812;22;20401;-77
2023/03/24 13:51:26;;;;;;;3.78;3.47;;;;;;;;;;6302812;22;20064;-77
2023/03/24 13:53:58;;;;;;;3.40;3.20;;;;;;;;;;6301367;22;20018;-77
2023/03/24 13:56:26;;;;;;;4.85;4.45;;;;;;;;;;6275990;22;20106;-78
2023/03/24 13:58:58;;;;;;;4.22;3.90;;;;;;;;;;6302489;22;20018;-76
2023/03/24 14:01:33;;;;;;;3.05;2.92;;;;;;;;;;6303224;22;20014;-78
2023/03/24 14:04:26;;;;;;;3.90;3.58;;;;;;;;;;6302549;22;20011;-77
2023/03/24 14:06:53;;;;;;;2.83;2.67;;;;;;;;;;6297706;22;20011;-77
2023/03/24 14:09:26;;;;;;;3.83;3.53;;;;;;;;;;6301002;22;20011;-77
2023/03/24 14:12:02;;;;;;;3.13;2.92;;;;;;;;;;6302649;22;20045;-76
2023/03/24 14:14:28;;;;;;;5.57;2.85;;;;;;;;;;6302928;22;20011;-77
2023/03/24 14:17:01;;;;;;;3.67;3.33;;;;;;;;;;6304422;22;20078;-77
2023/03/24 14:19:31;;;;;;;3.33;3.03;;;;;;;;;;6311637;22;20015;-76
2023/03/24 14:22:03;;;;;;;3.28;3.08;;;;;;;;;;6315484;22;20007;-77
2023/03/24 14:24:30;;;;;;;2.53;2.33;;;;;;;;;;6314568;22;20459;-77
2023/03/24 14:26:56;;;;;;;2.92;2.72;;;;;;;;;;6263878;22;20007;-76
2023/03/24 14:29:32;;;;;;;3.05;2.85;;;;;;;;;;6317112;22;20065;-76
2023/03/24 14:31:59;;;;;;;3.60;3.33;;;;;;;;;;6309111;22;20010;-77
2023/03/24 14:34:26;;;;;;;4.15;3.13;;;;;;;;;;6301200;22;20112;-78
2023/03/24 14:36:58;;;;;;;2.67;2.50;;;;;;;;;;6301522;22;20012;-77
2023/03/24 14:39:31;;;;;;;3.08;2.42;;;;;;;;;;6302621;22;20019;-76
2023/03/24 14:41:57;;;;;;;2.72;2.53;;;;;;;;;;6301222;22;20022;-75
2023/03/24 14:44:42;;;;;;;3.15;2.85;;;;;;;;;;6274522;22;20011;-77
2023/03/24 14:47:08;;;;;;;3.03;2.92;;;;;;;;;;6301290;22;20015;-77
2023/03/24 14:49:34;;;;;;;2.42;2.22;;;;;;;;;;6302234;22;20015;-79
2023/03/24 14:52:15;;;;;;;2.55;2.28;;;;;;;;;;6275044;22;20018;-78
2023/03/24 14:54:45;;;;;;;2.30;2.13;;;;;;;;;;6300958;22;20038;-77
2023/03/24 14:57:15;;;;;;;3.22;2.97;;;;;;;;;;6300633;22;20463;-77
2023/03/24 14:59:54;;;;;;;4.10;2.83;;;;;;;;;;6300133;22;20077;-77
2023/03/24 15:02:28;;;;;;;2.60;2.50;;;;;;;;;;6301720;22;20015;-77
2023/03/24 15:05:30;;;;;;;2.65;2.47;;;;;;;;;;6302579;22;20090;-78